Monday, September 26, 2016, 8:06 AM EDT

KDOV, Dover Air Force Base

Location: Dover, DE, United States Lat: 39.133
Local Time: 8:06 AM EDT (12:06 GMT) Lon: -75.467
Time Zone: US/Eastern Elev: 29 ft

Show me the last for .
Show Decoded

2016-09-26 06:58 METAR KDOV 261058Z AUTO 14003KT 10SM CLR 12/12 A3015 =
2016-09-26 05:58 METAR KDOV 260958Z AUTO 15002KT 10SM CLR 13/13 A3015 RMK AO2 SLP213 T01290129 $
                 =
2016-09-26 04:58 METAR KDOV 260858Z AUTO 19002KT 10SM CLR 12/12 A3015 RMK AO2 SLP213 T01230123
                 56006 $ =
2016-09-26 03:58 METAR KDOV 260758Z AUTO 16002KT 10SM CLR 12/12 A3015 =
2016-09-26 02:58 METAR KDOV 260658Z AUTO 20003KT 10SM CLR 12/12 A3015 RMK AO2 SLP213 T01240124 $
                 =
2016-09-26 01:58 METAR KDOV 260558Z AUTO 18002KT 10SM CLR 13/13 A3017 RMK AO2 SLP220 T01310130
                 10162 20115 56003 $ =
2016-09-26 00:58 METAR KDOV 260458Z AUTO 19004KT 10SM CLR 12/11 A3017 RMK AO2 SLP220 T01230114
                 402150100 $ =
2016-09-25 23:58 METAR KDOV 260358Z AUTO 18003KT 10SM CLR 14/12 A3017 =
2016-09-25 22:58 METAR KDOV 260258Z AUTO 18004KT 10SM CLR 13/11 A3017 RMK AO2 SLP220 T01340112
                 52008 $ =
2016-09-25 21:58 METAR KDOV 260158Z AUTO 22002KT 10SM CLR 15/12 A3017 RMK AO2 SLP220 T01470116 $
                 =
2016-09-25 20:58 METAR KDOV 260058Z AUTO 19004KT 10SM CLR 15/12 A3016 RMK AO2 SLP216 T01470115 $
                 =
2016-09-25 19:58 METAR KDOV 252358Z AUTO 15001KT 10SM CLR 16/12 A3015 RMK AO2 SLP213 T01600115
                 10215 20156 52008 $ =
2016-09-25 18:58 METAR KDOV 252258Z AUTO 14003KT 10SM CLR 18/11 A3014 =
2016-09-25 17:58 METAR KDOV 252158Z AUTO 09003KT 10SM CLR 20/12 A3013 RMK AO2 SLP206 T02010116 $
                 =
2016-09-25 16:58 METAR KDOV 252058Z AUTO 11005KT 10SM CLR 21/12 A3013 RMK AO2 SLP206 T02080119
                 56013 $ =
2016-09-25 15:58 METAR KDOV 251958Z AUTO VRB03KT 10SM CLR 21/12 A3013 RMK AO2 SLP206 T02120123 $
                 =
2016-09-25 14:58 METAR KDOV 251858Z AUTO VRB01KT 10SM CLR 21/13 A3015 =
2016-09-25 13:58 METAR KDOV 251758Z AUTO 06006KT 10SM CLR 20/14 A3017 RMK AO2 SLP220 T02040137
                 10208 20127 57015 $ =
2016-09-25 12:58 METAR KDOV 251658Z AUTO 07005KT 10SM CLR 20/14 A3019 RMK AO2 SLP226 T01990143 $
                 =
2016-09-25 11:58 METAR KDOV 251558Z AUTO 04007KT 10SM CLR 19/15 A3020 =
2016-09-25 10:58 METAR KDOV 251458Z AUTO 04007KT 10SM CLR 18/15 A3021 RMK AO2 SLP233 T01840149
                 53005 $ =
2016-09-25 09:58 METAR KDOV 251358Z AUTO 02009KT 10SM CLR 17/15 A3020 RMK AO2 SLP230 T01690145 $
                 =
2016-09-25 08:58 METAR KDOV 251258Z AUTO 36008KT 3SM BR CLR 15/15 A3019 RMK AO2 SLP226 T01520149
                 $ =

Support USWX by starting your Amazon purchase here.